sensor_id;sensor_type;location;lat;lon;timestamp;P1;durP1;ratioP1;P2;durP2;ratioP2
53977;SDS011;39886;47.984;-1.586;2022-10-31T00:01:36;0.52;;;0.52;;
53977;SDS011;39886;47.984;-1.586;2022-10-31T00:04:03;0.85;;;0.80;;
53977;SDS011;39886;47.984;-1.586;2022-10-31T00:06:30;0.63;;;0.63;;
53977;SDS011;39886;47.984;-1.586;2022-10-31T00:08:59;0.77;;;0.75;;
53977;SDS011;39886;47.984;-1.586;2022-10-31T00:11:26;0.70;;;0.60;;
53977;SDS011;39886;47.984;-1.586;2022-10-31T00:13:52;0.77;;;0.60;;
53977;SDS011;39886;47.984;-1.586;2022-10-31T00:16:19;0.75;;;0.70;;
53977;SDS011;39886;47.984;-1.586;2022-10-31T00:18:50;0.68;;;0.68;;
53977;SDS011;39886;47.984;-1.586;2022-10-31T00:21:17;0.70;;;0.70;;
53977;SDS011;39886;47.984;-1.586;2022-10-31T00:23:42;0.70;;;0.60;;
53977;SDS011;39886;47.984;-1.586;2022-10-31T00:26:08;0.80;;;0.70;;
53977;SDS011;39886;47.984;-1.586;2022-10-31T00:28:34;0.82;;;0.60;;
53977;SDS011;39886;47.984;-1.586;2022-10-31T00:31:00;0.98;;;0.82;;
53977;SDS011;39886;47.984;-1.586;2022-10-31T00:33:27;1.25;;;0.75;;
53977;SDS011;39886;47.984;-1.586;2022-10-31T00:35:53;1.13;;;0.82;;
53977;SDS011;39886;47.984;-1.586;2022-10-31T00:38:19;0.65;;;0.60;;
53977;SDS011;39886;47.984;-1.586;2022-10-31T00:40:44;1.55;;;0.68;;
53977;SDS011;39886;47.984;-1.586;2022-10-31T00:43:10;0.85;;;0.77;;
53977;SDS011;39886;47.984;-1.586;2022-10-31T00:45:36;0.95;;;0.70;;
53977;SDS011;39886;47.984;-1.586;2022-10-31T00:48:02;1.10;;;0.80;;
53977;SDS011;39886;47.984;-1.586;2022-10-31T00:50:27;0.65;;;0.65;;
53977;SDS011;39886;47.984;-1.586;2022-10-31T00:52:53;0.50;;;0.50;;
53977;SDS011;39886;47.984;-1.586;2022-10-31T00:55:19;1.20;;;0.70;;
53977;SDS011;39886;47.984;-1.586;2022-10-31T00:57:47;1.33;;;0.80;;
53977;SDS011;39886;47.984;-1.586;2022-10-31T01:00:13;0.50;;;0.50;;
53977;SDS011;39886;47.984;-1.586;2022-10-31T01:02:40;1.02;;;0.75;;
53977;SDS011;39886;47.984;-1.586;2022-10-31T01:05:06;0.60;;;0.60;;
53977;SDS011;39886;47.984;-1.586;2022-10-31T01:07:35;0.70;;;0.65;;
53977;SDS011;39886;47.984;-1.586;2022-10-31T01:10:01;0.77;;;0.60;;
53977;SDS011;39886;47.984;-1.586;2022-10-31T01:12:28;0.80;;;0.80;;
53977;SDS011;39886;47.984;-1.586;2022-10-31T01:14:53;0.82;;;0.63;;
53977;SDS011;39886;47.984;-1.586;2022-10-31T01:17:19;0.82;;;0.60;;
53977;SDS011;39886;47.984;-1.586;2022-10-31T01:19:45;0.60;;;0.60;;
53977;SDS011;39886;47.984;-1.586;2022-10-31T01:22:10;1.15;;;0.80;;
53977;SDS011;39886;47.984;-1.586;2022-10-31T01:24:36;0.70;;;0.70;;
53977;SDS011;39886;47.984;-1.586;2022-10-31T01:27:02;1.10;;;0.70;;
53977;SDS011;39886;47.984;-1.586;2022-10-31T01:29:28;0.60;;;0.60;;
53977;SDS011;39886;47.984;-1.586;2022-10-31T01:31:53;0.70;;;0.70;;
53977;SDS011;39886;47.984;-1.586;2022-10-31T01:34:19;0.98;;;0.63;;
53977;SDS011;39886;47.984;-1.586;2022-10-31T01:36:45;0.85;;;0.70;;
53977;SDS011;39886;47.984;-1.586;2022-10-31T01:39:16;1.23;;;0.75;;
53977;SDS011;39886;47.984;-1.586;2022-10-31T01:41:49;1.52;;;0.70;;
53977;SDS011;39886;47.984;-1.586;2022-10-31T01:52:36;0.85;;;0.63;;
53977;SDS011;39886;47.984;-1.586;2022-10-31T01:55:24;1.17;;;0.80;;
53977;SDS011;39886;47.984;-1.586;2022-10-31T01:57:54;0.67;;;0.60;;
53977;SDS011;39886;47.984;-1.586;2022-10-31T02:00:23;0.50;;;0.50;;
53977;SDS011;39886;47.984;-1.586;2022-10-31T02:02:49;0.70;;;0.70;;
53977;SDS011;39886;47.984;-1.586;2022-10-31T02:05:17;1.08;;;0.60;;
53977;SDS011;39886;47.984;-1.586;2022-10-31T02:07:51;0.80;;;0.70;;
53977;SDS011;39886;47.984;-1.586;2022-10-31T02:10:22;0.60;;;0.60;;
53977;SDS011;39886;47.984;-1.586;2022-10-31T02:12:52;0.63;;;0.63;;
53977;SDS011;39886;47.984;-1.586;2022-10-31T02:15:20;0.80;;;0.70;;
53977;SDS011;39886;47.984;-1.586;2022-10-31T02:17:46;0.93;;;0.70;;
53977;SDS011;39886;47.984;-1.586;2022-10-31T02:20:14;0.70;;;0.70;;
53977;SDS011;39886;47.984;-1.586;2022-10-31T02:33:55;0.70;;;0.70;;
53977;SDS011;39886;47.984;-1.586;2022-10-31T02:36:57;1.10;;;0.90;;
53977;SDS011;39886;47.984;-1.586;2022-10-31T02:39:25;0.60;;;0.60;;
53977;SDS011;39886;47.984;-1.586;2022-10-31T02:44:45;0.57;;;0.57;;
53977;SDS011;39886;47.984;-1.586;2022-10-31T02:47:15;1.45;;;0.82;;
53977;SDS011;39886;47.984;-1.586;2022-10-31T02:49:54;0.60;;;0.60;;
53977;SDS011;39886;47.984;-1.586;2022-10-31T02:52:30;0.52;;;0.52;;
53977;SDS011;39886;47.984;-1.586;2022-10-31T02:54:57;0.52;;;0.50;;
53977;SDS011;39886;47.984;-1.586;2022-10-31T02:57:30;0.60;;;0.60;;
53977;SDS011;39886;47.984;-1.586;2022-10-31T03:00:00;1.13;;;0.75;;
53977;SDS011;39886;47.984;-1.586;2022-10-31T03:05:14;0.70;;;0.70;;
53977;SDS011;39886;47.984;-1.586;2022-10-31T03:08:06;0.65;;;0.65;;
53977;SDS011;39886;47.984;-1.586;2022-10-31T03:10:58;0.70;;;0.70;;
53977;SDS011;39886;47.984;-1.586;2022-10-31T03:16:26;0.50;;;0.50;;
53977;SDS011;39886;47.984;-1.586;2022-10-31T03:21:35;0.60;;;0.60;;
53977;SDS011;39886;47.984;-1.586;2022-10-31T03:24:01;0.80;;;0.50;;
53977;SDS011;39886;47.984;-1.586;2022-10-31T03:26:29;0.57;;;0.57;;
53977;SDS011;39886;47.984;-1.586;2022-10-31T03:29:00;0.65;;;0.60;;
53977;SDS011;39886;47.984;-1.586;2022-10-31T03:31:33;0.50;;;0.50;;
53977;SDS011;39886;47.984;-1.586;2022-10-31T03:34:04;0.50;;;0.50;;
53977;SDS011;39886;47.984;-1.586;2022-10-31T03:36:33;0.77;;;0.63;;
53977;SDS011;39886;47.984;-1.586;2022-10-31T03:39:03;0.55;;;0.55;;
53977;SDS011;39886;47.984;-1.586;2022-10-31T03:41:31;0.43;;;0.40;;
53977;SDS011;39886;47.984;-1.586;2022-10-31T03:44:14;0.50;;;0.50;;
53977;SDS011;39886;47.984;-1.586;2022-10-31T03:46:42;0.60;;;0.57;;
53977;SDS011;39886;47.984;-1.586;2022-10-31T03:49:09;0.40;;;0.40;;
53977;SDS011;39886;47.984;-1.586;2022-10-31T03:57:06;0.65;;;0.45;;
53977;SDS011;39886;47.984;-1.586;2022-10-31T03:59:42;0.52;;;0.52;;
53977;SDS011;39886;47.984;-1.586;2022-10-31T04:02:18;0.70;;;0.70;;
53977;SDS011;39886;47.984;-1.586;2022-10-31T04:04:47;0.60;;;0.60;;
53977;SDS011;39886;47.984;-1.586;2022-10-31T04:07:14;0.57;;;0.52;;
53977;SDS011;39886;47.984;-1.586;2022-10-31T04:09:41;0.60;;;0.60;;
53977;SDS011;39886;47.984;-1.586;2022-10-31T04:12:10;0.57;;;0.57;;
53977;SDS011;39886;47.984;-1.586;2022-10-31T04:14:40;0.90;;;0.60;;
53977;SDS011;39886;47.984;-1.586;2022-10-31T04:17:09;0.65;;;0.65;;
53977;SDS011;39886;47.984;-1.586;2022-10-31T04:19:38;0.50;;;0.50;;
53977;SDS011;39886;47.984;-1.586;2022-10-31T04:22:04;0.85;;;0.60;;
53977;SDS011;39886;47.984;-1.586;2022-10-31T04:24:30;0.50;;;0.50;;
53977;SDS011;39886;47.984;-1.586;2022-10-31T04:26:56;0.40;;;0.40;;
53977;SDS011;39886;47.984;-1.586;2022-10-31T04:29:21;0.57;;;0.57;;
53977;SDS011;39886;47.984;-1.586;2022-10-31T04:31:47;0.60;;;0.60;;
53977;SDS011;39886;47.984;-1.586;2022-10-31T04:34:13;0.60;;;0.60;;
53977;SDS011;39886;47.984;-1.586;2022-10-31T04:36:38;0.50;;;0.50;;
53977;SDS011;39886;47.984;-1.586;2022-10-31T04:39:04;0.55;;;0.55;;
53977;SDS011;39886;47.984;-1.586;2022-10-31T04:41:30;0.75;;;0.50;;
53977;SDS011;39886;47.984;-1.586;2022-10-31T04:43:55;0.60;;;0.60;;
53977;SDS011;39886;47.984;-1.586;2022-10-31T04:46:21;0.77;;;0.70;;
53977;SDS011;39886;47.984;-1.586;2022-10-31T04:48:47;0.70;;;0.70;;
53977;SDS011;39886;47.984;-1.586;2022-10-31T04:51:13;0.50;;;0.50;;
53977;SDS011;39886;47.984;-1.586;2022-10-31T04:53:39;0.50;;;0.50;;
53977;SDS011;39886;47.984;-1.586;2022-10-31T04:56:04;0.45;;;0.45;;
53977;SDS011;39886;47.984;-1.586;2022-10-31T04:58:30;0.50;;;0.50;;
53977;SDS011;39886;47.984;-1.586;2022-10-31T05:00:56;0.63;;;0.63;;
53977;SDS011;39886;47.984;-1.586;2022-10-31T05:03:22;0.40;;;0.40;;
53977;SDS011;39886;47.984;-1.586;2022-10-31T05:05:48;0.60;;;0.60;;
53977;SDS011;39886;47.984;-1.586;2022-10-31T05:08:14;0.43;;;0.43;;
53977;SDS011;39886;47.984;-1.586;2022-10-31T05:10:40;0.50;;;0.50;;
53977;SDS011;39886;47.984;-1.586;2022-10-31T05:13:05;0.60;;;0.60;;
53977;SDS011;39886;47.984;-1.586;2022-10-31T05:15:32;0.50;;;0.50;;
53977;SDS011;39886;47.984;-1.586;2022-10-31T05:17:58;0.60;;;0.60;;
53977;SDS011;39886;47.984;-1.586;2022-10-31T05:20:25;0.55;;;0.55;;
53977;SDS011;39886;47.984;-1.586;2022-10-31T05:22:53;0.68;;;0.60;;
53977;SDS011;39886;47.984;-1.586;2022-10-31T05:25:21;0.50;;;0.50;;
53977;SDS011;39886;47.984;-1.586;2022-10-31T05:27:49;0.50;;;0.50;;
53977;SDS011;39886;47.984;-1.586;2022-10-31T05:30:19;0.57;;;0.57;;
53977;SDS011;39886;47.984;-1.586;2022-10-31T05:32:48;0.40;;;0.40;;
53977;SDS011;39886;47.984;-1.586;2022-10-31T05:35:15;0.47;;;0.47;;
53977;SDS011;39886;47.984;-1.586;2022-10-31T05:37:43;0.57;;;0.50;;
53977;SDS011;39886;47.984;-1.586;2022-10-31T05:40:10;0.70;;;0.60;;
53977;SDS011;39886;47.984;-1.586;2022-10-31T05:42:38;0.40;;;0.40;;
53977;SDS011;39886;47.984;-1.586;2022-10-31T05:45:05;0.50;;;0.50;;
53977;SDS011;39886;47.984;-1.586;2022-10-31T05:47:32;0.40;;;0.40;;
53977;SDS011;39886;47.984;-1.586;2022-10-31T05:49:57;0.40;;;0.40;;
53977;SDS011;39886;47.984;-1.586;2022-10-31T05:52:23;0.50;;;0.50;;
53977;SDS011;39886;47.984;-1.586;2022-10-31T05:54:49;0.60;;;0.60;;
53977;SDS011;39886;47.984;-1.586;2022-10-31T05:57:14;0.50;;;0.50;;
53977;SDS011;39886;47.984;-1.586;2022-10-31T05:59:40;0.45;;;0.45;;
53977;SDS011;39886;47.984;-1.586;2022-10-31T06:02:06;0.60;;;0.60;;
53977;SDS011;39886;47.984;-1.586;2022-10-31T06:04:31;1.25;;;0.50;;
53977;SDS011;39886;47.984;-1.586;2022-10-31T06:06:57;0.40;;;0.40;;
53977;SDS011;39886;47.984;-1.586;2022-10-31T06:09:23;0.40;;;0.40;;
53977;SDS011;39886;47.984;-1.586;2022-10-31T06:11:48;0.47;;;0.47;;
53977;SDS011;39886;47.984;-1.586;2022-10-31T06:14:14;0.40;;;0.40;;
53977;SDS011;39886;47.984;-1.586;2022-10-31T06:16:40;0.50;;;0.50;;
53977;SDS011;39886;47.984;-1.586;2022-10-31T06:19:06;0.63;;;0.50;;
53977;SDS011;39886;47.984;-1.586;2022-10-31T06:21:31;0.40;;;0.40;;
53977;SDS011;39886;47.984;-1.586;2022-10-31T06:23:57;0.65;;;0.50;;
53977;SDS011;39886;47.984;-1.586;2022-10-31T06:26:23;0.47;;;0.47;;
53977;SDS011;39886;47.984;-1.586;2022-10-31T06:28:48;0.50;;;0.50;;
53977;SDS011;39886;47.984;-1.586;2022-10-31T06:31:14;0.40;;;0.40;;
53977;SDS011;39886;47.984;-1.586;2022-10-31T06:33:42;0.75;;;0.50;;
53977;SDS011;39886;47.984;-1.586;2022-10-31T06:36:09;0.50;;;0.50;;
53977;SDS011;39886;47.984;-1.586;2022-10-31T06:38:35;0.55;;;0.50;;
53977;SDS011;39886;47.984;-1.586;2022-10-31T06:41:04;0.40;;;0.40;;
53977;SDS011;39886;47.984;-1.586;2022-10-31T06:43:30;0.60;;;0.60;;
53977;SDS011;39886;47.984;-1.586;2022-10-31T06:45:57;0.47;;;0.40;;
53977;SDS011;39886;47.984;-1.586;2022-10-31T06:48:26;0.40;;;0.40;;
53977;SDS011;39886;47.984;-1.586;2022-10-31T06:50:52;0.40;;;0.40;;
53977;SDS011;39886;47.984;-1.586;2022-10-31T06:53:18;0.50;;;0.50;;
53977;SDS011;39886;47.984;-1.586;2022-10-31T06:55:43;0.35;;;0.35;;
53977;SDS011;39886;47.984;-1.586;2022-10-31T06:58:09;0.40;;;0.40;;
53977;SDS011;39886;47.984;-1.586;2022-10-31T07:00:36;0.40;;;0.40;;
53977;SDS011;39886;47.984;-1.586;2022-10-31T07:03:04;0.40;;;0.40;;
53977;SDS011;39886;47.984;-1.586;2022-10-31T07:05:31;0.75;;;0.40;;
53977;SDS011;39886;47.984;-1.586;2022-10-31T07:07:58;0.50;;;0.50;;
53977;SDS011;39886;47.984;-1.586;2022-10-31T07:10:26;0.70;;;0.60;;
53977;SDS011;39886;47.984;-1.586;2022-10-31T07:12:56;0.40;;;0.40;;
53977;SDS011;39886;47.984;-1.586;2022-10-31T07:15:24;0.60;;;0.50;;
53977;SDS011;39886;47.984;-1.586;2022-10-31T07:17:51;0.57;;;0.57;;
53977;SDS011;39886;47.984;-1.586;2022-10-31T07:20:17;0.52;;;0.35;;
53977;SDS011;39886;47.984;-1.586;2022-10-31T07:22:43;0.40;;;0.40;;
53977;SDS011;39886;47.984;-1.586;2022-10-31T07:25:08;0.30;;;0.30;;
53977;SDS011;39886;47.984;-1.586;2022-10-31T07:27:37;0.50;;;0.50;;
53977;SDS011;39886;47.984;-1.586;2022-10-31T07:30:04;0.38;;;0.38;;
53977;SDS011;39886;47.984;-1.586;2022-10-31T07:35:28;1.52;;;0.43;;
53977;SDS011;39886;47.984;-1.586;2022-10-31T07:37:55;0.40;;;0.40;;
53977;SDS011;39886;47.984;-1.586;2022-10-31T07:40:21;0.30;;;0.30;;
53977;SDS011;39886;47.984;-1.586;2022-10-31T07:42:49;0.30;;;0.30;;
53977;SDS011;39886;47.984;-1.586;2022-10-31T07:45:18;0.30;;;0.30;;
53977;SDS011;39886;47.984;-1.586;2022-10-31T07:47:45;0.32;;;0.32;;
53977;SDS011;39886;47.984;-1.586;2022-10-31T07:50:13;0.20;;;0.20;;
53977;SDS011;39886;47.984;-1.586;2022-10-31T07:52:43;0.40;;;0.40;;
53977;SDS011;39886;47.984;-1.586;2022-10-31T07:55:09;0.40;;;0.40;;
53977;SDS011;39886;47.984;-1.586;2022-10-31T07:57:36;0.30;;;0.30;;
53977;SDS011;39886;47.984;-1.586;2022-10-31T08:00:03;0.30;;;0.30;;
53977;SDS011;39886;47.984;-1.586;2022-10-31T08:02:30;0.40;;;0.40;;
53977;SDS011;39886;47.984;-1.586;2022-10-31T08:04:55;0.30;;;0.30;;
53977;SDS011;39886;47.984;-1.586;2022-10-31T08:07:21;0.38;;;0.38;;
53977;SDS011;39886;47.984;-1.586;2022-10-31T08:09:47;0.40;;;0.40;;
53977;SDS011;39886;47.984;-1.586;2022-10-31T08:12:12;0.40;;;0.40;;
53977;SDS011;39886;47.984;-1.586;2022-10-31T08:14:38;0.65;;;0.45;;
53977;SDS011;39886;47.984;-1.586;2022-10-31T08:17:04;0.30;;;0.30;;
53977;SDS011;39886;47.984;-1.586;2022-10-31T08:19:29;0.65;;;0.55;;
53977;SDS011;39886;47.984;-1.586;2022-10-31T08:21:55;0.50;;;0.50;;
53977;SDS011;39886;47.984;-1.586;2022-10-31T08:24:21;0.30;;;0.30;;
53977;SDS011;39886;47.984;-1.586;2022-10-31T08:26:47;0.32;;;0.32;;
53977;SDS011;39886;47.984;-1.586;2022-10-31T08:29:13;0.32;;;0.30;;
53977;SDS011;39886;47.984;-1.586;2022-10-31T08:31:39;0.50;;;0.50;;
53977;SDS011;39886;47.984;-1.586;2022-10-31T08:34:06;1.27;;;0.50;;
53977;SDS011;39886;47.984;-1.586;2022-10-31T08:36:32;0.43;;;0.43;;
53977;SDS011;39886;47.984;-1.586;2022-10-31T08:38:58;0.30;;;0.30;;
53977;SDS011;39886;47.984;-1.586;2022-10-31T08:41:23;0.40;;;0.40;;
53977;SDS011;39886;47.984;-1.586;2022-10-31T08:43:49;0.30;;;0.30;;
53977;SDS011;39886;47.984;-1.586;2022-10-31T08:46:15;0.63;;;0.40;;
53977;SDS011;39886;47.984;-1.586;2022-10-31T08:48:41;0.45;;;0.45;;
53977;SDS011;39886;47.984;-1.586;2022-10-31T08:51:07;0.47;;;0.47;;
53977;SDS011;39886;47.984;-1.586;2022-10-31T08:53:34;0.85;;;0.50;;
53977;SDS011;39886;47.984;-1.586;2022-10-31T08:56:00;0.75;;;0.50;;
53977;SDS011;39886;47.984;-1.586;2022-10-31T08:58:26;0.40;;;0.40;;
53977;SDS011;39886;47.984;-1.586;2022-10-31T09:00:52;0.40;;;0.40;;
53977;SDS011;39886;47.984;-1.586;2022-10-31T09:03:23;0.47;;;0.47;;
53977;SDS011;39886;47.984;-1.586;2022-10-31T09:05:50;0.30;;;0.30;;
53977;SDS011;39886;47.984;-1.586;2022-10-31T09:08:19;0.30;;;0.30;;
53977;SDS011;39886;47.984;-1.586;2022-10-31T09:10:45;0.30;;;0.30;;
53977;SDS011;39886;47.984;-1.586;2022-10-31T09:13:15;0.40;;;0.40;;
53977;SDS011;39886;47.984;-1.586;2022-10-31T09:15:42;0.40;;;0.40;;
53977;SDS011;39886;47.984;-1.586;2022-10-31T09:18:10;0.80;;;0.50;;
53977;SDS011;39886;47.984;-1.586;2022-10-31T09:20:37;0.40;;;0.40;;
53977;SDS011;39886;47.984;-1.586;2022-10-31T09:23:05;0.43;;;0.43;;
53977;SDS011;39886;47.984;-1.586;2022-10-31T09:25:32;0.40;;;0.40;;
53977;SDS011;39886;47.984;-1.586;2022-10-31T09:28:00;0.40;;;0.40;;
53977;SDS011;39886;47.984;-1.586;2022-10-31T09:30:28;0.60;;;0.60;;
53977;SDS011;39886;47.984;-1.586;2022-10-31T09:32:58;0.30;;;0.30;;
53977;SDS011;39886;47.984;-1.586;2022-10-31T09:35:26;0.38;;;0.38;;
53977;SDS011;39886;47.984;-1.586;2022-10-31T09:40:21;0.50;;;0.50;;
53977;SDS011;39886;47.984;-1.586;2022-10-31T09:43:07;0.40;;;0.40;;
53977;SDS011;39886;47.984;-1.586;2022-10-31T09:51:31;0.75;;;0.75;;
53977;SDS011;39886;47.984;-1.586;2022-10-31T09:56:44;0.40;;;0.40;;
53977;SDS011;39886;47.984;-1.586;2022-10-31T09:59:44;0.63;;;0.43;;
53977;SDS011;39886;47.984;-1.586;2022-10-31T10:02:05;0.50;;;0.50;;
53977;SDS011;39886;47.984;-1.586;2022-10-31T10:04:51;0.60;;;0.60;;
53977;SDS011;39886;47.984;-1.586;2022-10-31T10:10:20;0.47;;;0.47;;
53977;SDS011;39886;47.984;-1.586;2022-10-31T10:24:27;0.90;;;0.50;;
53977;SDS011;39886;47.984;-1.586;2022-10-31T10:29:39;0.63;;;0.50;;
53977;SDS011;39886;47.984;-1.586;2022-10-31T10:32:17;0.50;;;0.50;;
53977;SDS011;39886;47.984;-1.586;2022-10-31T10:34:49;0.52;;;0.50;;
53977;SDS011;39886;47.984;-1.586;2022-10-31T10:37:32;0.40;;;0.40;;
53977;SDS011;39886;47.984;-1.586;2022-10-31T10:40:13;0.50;;;0.50;;
53977;SDS011;39886;47.984;-1.586;2022-10-31T10:45:45;0.50;;;0.50;;
53977;SDS011;39886;47.984;-1.586;2022-10-31T10:48:43;0.68;;;0.55;;
53977;SDS011;39886;47.984;-1.586;2022-10-31T10:51:27;0.70;;;0.52;;
53977;SDS011;39886;47.984;-1.586;2022-10-31T10:56:40;0.40;;;0.40;;
53977;SDS011;39886;47.984;-1.586;2022-10-31T10:59:13;0.63;;;0.50;;
53977;SDS011;39886;47.984;-1.586;2022-10-31T11:01:41;0.45;;;0.45;;
53977;SDS011;39886;47.984;-1.586;2022-10-31T11:04:29;0.52;;;0.52;;
53977;SDS011;39886;47.984;-1.586;2022-10-31T11:07:08;0.50;;;0.50;;
53977;SDS011;39886;47.984;-1.586;2022-10-31T11:09:35;0.50;;;0.50;;
53977;SDS011;39886;47.984;-1.586;2022-10-31T11:12:08;0.70;;;0.70;;
53977;SDS011;39886;47.984;-1.586;2022-10-31T11:14:45;0.60;;;0.50;;
53977;SDS011;39886;47.984;-1.586;2022-10-31T11:17:22;1.13;;;0.52;;
53977;SDS011;39886;47.984;-1.586;2022-10-31T11:23:18;0.60;;;0.60;;
53977;SDS011;39886;47.984;-1.586;2022-10-31T11:26:01;1.05;;;0.80;;
53977;SDS011;39886;47.984;-1.586;2022-10-31T11:28:29;0.60;;;0.60;;
53977;SDS011;39886;47.984;-1.586;2022-10-31T11:31:12;0.70;;;0.70;;
53977;SDS011;39886;47.984;-1.586;2022-10-31T11:36:20;0.68;;;0.60;;
53977;SDS011;39886;47.984;-1.586;2022-10-31T11:38:52;0.70;;;0.70;;
53977;SDS011;39886;47.984;-1.586;2022-10-31T11:41:28;0.95;;;0.70;;
53977;SDS011;39886;47.984;-1.586;2022-10-31T11:44:12;1.00;;;0.70;;
53977;SDS011;39886;47.984;-1.586;2022-10-31T11:49:34;0.60;;;0.60;;
53977;SDS011;39886;47.984;-1.586;2022-10-31T11:52:02;0.60;;;0.60;;
53977;SDS011;39886;47.984;-1.586;2022-10-31T11:59:53;0.75;;;0.75;;
53977;SDS011;39886;47.984;-1.586;2022-10-31T12:02:21;0.80;;;0.80;;
53977;SDS011;39886;47.984;-1.586;2022-10-31T12:04:49;1.27;;;0.95;;
53977;SDS011;39886;47.984;-1.586;2022-10-31T12:52:23;0.93;;;0.90;;
53977;SDS011;39886;47.984;-1.586;2022-10-31T12:55:08;0.80;;;0.80;;
53977;SDS011;39886;47.984;-1.586;2022-10-31T12:57:50;1.13;;;0.90;;
53977;SDS011;39886;47.984;-1.586;2022-10-31T13:00:21;1.35;;;0.90;;
53977;SDS011;39886;47.984;-1.586;2022-10-31T13:02:54;0.90;;;0.90;;
53977;SDS011;39886;47.984;-1.586;2022-10-31T13:05:41;1.20;;;1.02;;
53977;SDS011;39886;47.984;-1.586;2022-10-31T13:08:14;1.63;;;1.10;;
53977;SDS011;39886;47.984;-1.586;2022-10-31T13:11:02;0.75;;;0.75;;
53977;SDS011;39886;47.984;-1.586;2022-10-31T13:13:32;1.75;;;1.00;;
53977;SDS011;39886;47.984;-1.586;2022-10-31T13:16:21;0.95;;;0.95;;
53977;SDS011;39886;47.984;-1.586;2022-10-31T13:21:26;1.38;;;0.98;;
53977;SDS011;39886;47.984;-1.586;2022-10-31T13:23:57;1.08;;;0.90;;
53977;SDS011;39886;47.984;-1.586;2022-10-31T13:32:09;1.17;;;1.08;;
53977;SDS011;39886;47.984;-1.586;2022-10-31T13:34:39;1.27;;;1.17;;
53977;SDS011;39886;47.984;-1.586;2022-10-31T13:37:52;1.98;;;1.40;;
53977;SDS011;39886;47.984;-1.586;2022-10-31T13:45:21;11.23;;;1.17;;
53977;SDS011;39886;47.984;-1.586;2022-10-31T13:50:42;1.00;;;1.00;;
53977;SDS011;39886;47.984;-1.586;2022-10-31T13:53:21;1.30;;;1.20;;
53977;SDS011;39886;47.984;-1.586;2022-10-31T13:55:49;1.25;;;0.98;;
53977;SDS011;39886;47.984;-1.586;2022-10-31T13:58:35;1.75;;;1.08;;
53977;SDS011;39886;47.984;-1.586;2022-10-31T14:03:46;1.40;;;1.13;;
53977;SDS011;39886;47.984;-1.586;2022-10-31T14:06:21;1.23;;;1.00;;
53977;SDS011;39886;47.984;-1.586;2022-10-31T14:08:59;1.80;;;1.23;;
53977;SDS011;39886;47.984;-1.586;2022-10-31T14:11:26;1.80;;;1.30;;
53977;SDS011;39886;47.984;-1.586;2022-10-31T14:13:53;0.93;;;0.93;;
53977;SDS011;39886;47.984;-1.586;2022-10-31T14:16:28;1.50;;;1.20;;
53977;SDS011;39886;47.984;-1.586;2022-10-31T14:21:37;1.48;;;1.38;;
53977;SDS011;39886;47.984;-1.586;2022-10-31T14:26:56;1.20;;;1.10;;
53977;SDS011;39886;47.984;-1.586;2022-10-31T14:29:27;1.17;;;1.10;;
53977;SDS011;39886;47.984;-1.586;2022-10-31T14:45:37;1.27;;;1.17;;
53977;SDS011;39886;47.984;-1.586;2022-10-31T14:53:28;1.40;;;1.30;;
53977;SDS011;39886;47.984;-1.586;2022-10-31T14:55:57;1.80;;;1.50;;
53977;SDS011;39886;47.984;-1.586;2022-10-31T14:58:41;2.17;;;1.38;;
53977;SDS011;39886;47.984;-1.586;2022-10-31T15:01:27;1.63;;;1.52;;
53977;SDS011;39886;47.984;-1.586;2022-10-31T15:04:03;2.47;;;1.42;;
53977;SDS011;39886;47.984;-1.586;2022-10-31T15:06:30;2.28;;;1.50;;
53977;SDS011;39886;47.984;-1.586;2022-10-31T15:09:04;1.40;;;1.30;;
53977;SDS011;39886;47.984;-1.586;2022-10-31T15:11:35;1.70;;;1.60;;
53977;SDS011;39886;47.984;-1.586;2022-10-31T15:14:05;2.15;;;1.45;;
53977;SDS011;39886;47.984;-1.586;2022-10-31T15:16:53;1.92;;;1.35;;
53977;SDS011;39886;47.984;-1.586;2022-10-31T15:19:23;1.40;;;1.30;;
53977;SDS011;39886;47.984;-1.586;2022-10-31T15:21:51;3.25;;;1.40;;
53977;SDS011;39886;47.984;-1.586;2022-10-31T15:24:19;1.60;;;1.50;;
53977;SDS011;39886;47.984;-1.586;2022-10-31T15:26:47;2.25;;;1.60;;
53977;SDS011;39886;47.984;-1.586;2022-10-31T15:29:16;2.05;;;1.40;;
53977;SDS011;39886;47.984;-1.586;2022-10-31T15:31:55;1.60;;;1.50;;
53977;SDS011;39886;47.984;-1.586;2022-10-31T15:34:27;1.70;;;1.40;;
53977;SDS011;39886;47.984;-1.586;2022-10-31T15:37:08;1.45;;;1.35;;
53977;SDS011;39886;47.984;-1.586;2022-10-31T15:39:39;1.65;;;1.55;;
53977;SDS011;39886;47.984;-1.586;2022-10-31T15:44:57;1.73;;;1.50;;
53977;SDS011;39886;47.984;-1.586;2022-10-31T15:47:25;1.50;;;1.40;;
53977;SDS011;39886;47.984;-1.586;2022-10-31T15:49:55;3.33;;;1.50;;
53977;SDS011;39886;47.984;-1.586;2022-10-31T15:55:15;1.70;;;1.42;;
53977;SDS011;39886;47.984;-1.586;2022-10-31T15:57:53;2.50;;;1.40;;
53977;SDS011;39886;47.984;-1.586;2022-10-31T16:00:30;1.92;;;1.73;;
53977;SDS011;39886;47.984;-1.586;2022-10-31T16:05:36;1.40;;;1.23;;
53977;SDS011;39886;47.984;-1.586;2022-10-31T16:08:04;1.75;;;1.42;;
53977;SDS011;39886;47.984;-1.586;2022-10-31T16:10:46;2.35;;;1.50;;
53977;SDS011;39886;47.984;-1.586;2022-10-31T16:13:12;1.60;;;1.48;;
53977;SDS011;39886;47.984;-1.586;2022-10-31T16:15:45;1.50;;;1.40;;
53977;SDS011;39886;47.984;-1.586;2022-10-31T16:18:13;1.45;;;1.35;;
53977;SDS011;39886;47.984;-1.586;2022-10-31T16:20:39;1.50;;;1.40;;
53977;SDS011;39886;47.984;-1.586;2022-10-31T16:23:05;1.52;;;1.42;;
53977;SDS011;39886;47.984;-1.586;2022-10-31T16:25:36;1.70;;;1.40;;
53977;SDS011;39886;47.984;-1.586;2022-10-31T16:28:04;1.45;;;1.35;;
53977;SDS011;39886;47.984;-1.586;2022-10-31T16:30:41;1.73;;;1.63;;
53977;SDS011;39886;47.984;-1.586;2022-10-31T16:38:53;1.50;;;1.40;;
53977;SDS011;39886;47.984;-1.586;2022-10-31T16:41:19;1.55;;;1.45;;
53977;SDS011;39886;47.984;-1.586;2022-10-31T16:43:45;1.65;;;1.30;;
53977;SDS011;39886;47.984;-1.586;2022-10-31T16:46:26;2.53;;;1.55;;
53977;SDS011;39886;47.984;-1.586;2022-10-31T16:48:52;1.70;;;1.42;;
53977;SDS011;39886;47.984;-1.586;2022-10-31T16:51:19;2.90;;;1.60;;
53977;SDS011;39886;47.984;-1.586;2022-10-31T16:53:45;1.40;;;1.30;;
53977;SDS011;39886;47.984;-1.586;2022-10-31T16:56:14;2.65;;;1.35;;
53977;SDS011;39886;47.984;-1.586;2022-10-31T16:58:55;2.13;;;1.45;;
53977;SDS011;39886;47.984;-1.586;2022-10-31T17:01:21;1.40;;;1.30;;
53977;SDS011;39886;47.984;-1.586;2022-10-31T17:03:47;1.65;;;1.52;;
53977;SDS011;39886;47.984;-1.586;2022-10-31T17:06:13;1.83;;;1.50;;
53977;SDS011;39886;47.984;-1.586;2022-10-31T17:08:39;2.67;;;1.75;;
53977;SDS011;39886;47.984;-1.586;2022-10-31T17:11:05;1.50;;;1.40;;
53977;SDS011;39886;47.984;-1.586;2022-10-31T17:13:40;1.50;;;1.40;;
53977;SDS011;39886;47.984;-1.586;2022-10-31T17:16:06;1.48;;;1.33;;
53977;SDS011;39886;47.984;-1.586;2022-10-31T17:18:32;1.60;;;1.50;;
53977;SDS011;39886;47.984;-1.586;2022-10-31T17:20:58;1.30;;;1.20;;
53977;SDS011;39886;47.984;-1.586;2022-10-31T17:23:26;1.60;;;1.45;;
53977;SDS011;39886;47.984;-1.586;2022-10-31T17:25:52;1.90;;;1.45;;
53977;SDS011;39886;47.984;-1.586;2022-10-31T17:28:18;1.75;;;1.42;;
53977;SDS011;39886;47.984;-1.586;2022-10-31T17:30:44;1.70;;;1.40;;
53977;SDS011;39886;47.984;-1.586;2022-10-31T17:33:14;1.40;;;1.30;;
53977;SDS011;39886;47.984;-1.586;2022-10-31T17:35:41;1.95;;;1.52;;
53977;SDS011;39886;47.984;-1.586;2022-10-31T17:38:07;1.55;;;1.45;;
53977;SDS011;39886;47.984;-1.586;2022-10-31T17:40:33;1.55;;;1.45;;
53977;SDS011;39886;47.984;-1.586;2022-10-31T17:43:00;1.67;;;1.55;;
53977;SDS011;39886;47.984;-1.586;2022-10-31T17:45:26;1.70;;;1.42;;
53977;SDS011;39886;47.984;-1.586;2022-10-31T17:47:52;1.30;;;1.20;;
53977;SDS011;39886;47.984;-1.586;2022-10-31T17:50:19;1.40;;;1.30;;
53977;SDS011;39886;47.984;-1.586;2022-10-31T17:52:48;1.40;;;1.30;;
53977;SDS011;39886;47.984;-1.586;2022-10-31T17:55:14;1.45;;;1.35;;
53977;SDS011;39886;47.984;-1.586;2022-10-31T17:57:40;1.88;;;1.40;;